createdAt,value
2022-10-19T00:01:18.994Z,13.70
2022-10-19T00:06:27.026Z,13.70
2022-10-19T00:08:59.981Z,13.60
2022-10-19T00:11:27.593Z,13.60
2022-10-19T00:13:56.879Z,13.50
2022-10-19T00:16:26.460Z,13.50
2022-10-19T00:18:57.573Z,13.30
2022-10-19T00:21:25.214Z,13.30
2022-10-19T00:23:52.101Z,13.30
2022-10-19T00:26:20.315Z,13.20
2022-10-19T00:28:47.504Z,13.20
2022-10-19T00:31:17.434Z,13.20
2022-10-19T00:33:47.331Z,13.20
2022-10-19T00:36:24.401Z,13.20
2022-10-19T00:38:53.000Z,13.10
2022-10-19T00:41:21.446Z,13.10
2022-10-19T00:44:01.797Z,13.10
2022-10-19T00:46:31.864Z,13.10
2022-10-19T00:49:10.017Z,13.00
2022-10-19T00:51:41.541Z,13.00
2022-10-19T00:54:09.226Z,13.10
2022-10-19T00:56:41.744Z,13.00
2022-10-19T00:59:08.808Z,13.00
2022-10-19T01:01:36.925Z,13.00
2022-10-19T01:04:05.619Z,13.00
2022-10-19T01:06:35.397Z,13.00
2022-10-19T01:09:02.662Z,12.90
2022-10-19T01:12:04.801Z,13.00
2022-10-19T01:15:04.106Z,12.90
2022-10-19T01:17:54.474Z,12.90
2022-10-19T01:21:03.380Z,13.00
2022-10-19T01:23:59.233Z,12.90
2022-10-19T01:26:57.662Z,12.90
2022-10-19T01:30:02.957Z,12.90
2022-10-19T01:32:33.035Z,12.90
2022-10-19T01:35:27.662Z,12.90
2022-10-19T01:38:14.632Z,12.90
2022-10-19T01:40:59.492Z,12.80
2022-10-19T01:43:43.821Z,12.70
2022-10-19T01:46:32.244Z,12.70
2022-10-19T01:49:04.735Z,12.80
2022-10-19T01:51:38.271Z,12.70
2022-10-19T01:54:12.922Z,12.70
2022-10-19T01:56:43.236Z,12.70
2022-10-19T01:59:12.921Z,12.70
2022-10-19T02:01:45.455Z,12.70
2022-10-19T02:04:19.001Z,12.60
2022-10-19T02:06:47.196Z,12.60
2022-10-19T02:09:18.166Z,12.60
2022-10-19T02:11:53.429Z,12.60
2022-10-19T02:14:27.674Z,12.60
2022-10-19T02:17:27.235Z,12.60
2022-10-19T02:19:58.021Z,12.60
2022-10-19T02:22:26.939Z,12.50
2022-10-19T02:24:55.789Z,12.50
2022-10-19T02:27:26.525Z,12.60
2022-10-19T02:29:54.154Z,12.50
2022-10-19T02:32:21.419Z,12.50
2022-10-19T02:34:48.430Z,12.50
2022-10-19T02:37:15.504Z,12.40
2022-10-19T02:39:42.552Z,12.50
2022-10-19T02:42:17.862Z,12.40
2022-10-19T02:44:56.221Z,12.40
2022-10-19T02:47:49.556Z,12.30
2022-10-19T02:50:21.291Z,12.30
2022-10-19T02:52:48.597Z,12.30
2022-10-19T02:55:15.485Z,12.30
2022-10-19T02:57:42.634Z,12.30
2022-10-19T03:00:10.524Z,12.20
2022-10-19T03:02:39.412Z,12.20
2022-10-19T03:05:09.652Z,12.10
2022-10-19T03:07:39.546Z,12.10
2022-10-19T03:10:06.973Z,12.00
2022-10-19T03:12:33.828Z,12.10
2022-10-19T03:15:02.771Z,12.00
2022-10-19T03:17:30.989Z,12.10
2022-10-19T03:19:58.922Z,12.00
2022-10-19T03:22:29.629Z,12.10
2022-10-19T03:24:59.565Z,12.10
2022-10-19T03:27:26.475Z,12.10
2022-10-19T03:29:53.401Z,12.10
2022-10-19T03:32:20.189Z,12.10
2022-10-19T03:34:47.304Z,12.00
2022-10-19T03:37:15.397Z,12.00
2022-10-19T03:39:43.338Z,11.80
2022-10-19T03:42:10.111Z,11.80
2022-10-19T03:44:38.246Z,11.80
2022-10-19T03:47:05.222Z,11.80
2022-10-19T03:49:34.580Z,11.70
2022-10-19T03:52:03.809Z,11.80
2022-10-19T03:54:31.079Z,11.80
2022-10-19T03:56:58.949Z,11.90
2022-10-19T03:59:26.149Z,11.90
2022-10-19T04:01:53.010Z,11.70
2022-10-19T04:04:20.284Z,11.80
2022-10-19T04:06:49.957Z,11.80
2022-10-19T04:09:19.391Z,11.80
2022-10-19T04:11:46.849Z,11.70
2022-10-19T04:14:26.635Z,11.70
2022-10-19T04:17:01.722Z,11.70
2022-10-19T04:19:30.622Z,11.60
2022-10-19T04:21:57.780Z,11.70
2022-10-19T04:24:26.806Z,11.60
2022-10-19T04:26:56.109Z,11.60
2022-10-19T04:29:29.396Z,11.60
2022-10-19T04:31:58.143Z,11.70
2022-10-19T04:34:25.696Z,11.70
2022-10-19T04:36:53.366Z,11.60
2022-10-19T04:39:20.495Z,11.60
2022-10-19T04:41:47.310Z,11.60
2022-10-19T04:44:15.681Z,11.60
2022-10-19T04:46:44.604Z,11.50
2022-10-19T04:49:15.210Z,11.60
2022-10-19T04:51:44.796Z,11.40
2022-10-19T04:54:12.650Z,11.40
2022-10-19T04:56:39.742Z,11.50
2022-10-19T04:59:06.762Z,11.50
2022-10-19T05:01:35.673Z,11.40
2022-10-19T05:04:03.490Z,11.40
2022-10-19T05:06:31.691Z,11.30
2022-10-19T05:08:59.381Z,11.30
2022-10-19T05:11:27.100Z,11.30
2022-10-19T05:13:53.993Z,11.40
2022-10-19T05:16:23.091Z,11.30
2022-10-19T05:18:51.687Z,11.30
2022-10-19T05:21:20.650Z,11.40
2022-10-19T05:23:51.646Z,11.30
2022-10-19T05:26:21.839Z,11.30
2022-10-19T05:28:50.484Z,11.20
2022-10-19T05:31:20.092Z,11.30
2022-10-19T05:33:47.040Z,11.20
2022-10-19T05:36:17.646Z,11.20
2022-10-19T05:38:46.369Z,11.20
2022-10-19T05:41:13.265Z,11.20
2022-10-19T05:43:41.615Z,11.10
2022-10-19T05:46:14.995Z,11.10
2022-10-19T05:48:41.963Z,11.00
2022-10-19T05:51:12.065Z,11.10
2022-10-19T05:53:40.787Z,11.20
2022-10-19T05:56:19.713Z,11.10
2022-10-19T05:58:50.799Z,11.10
2022-10-19T06:01:21.548Z,11.20
2022-10-19T06:03:53.083Z,11.00
2022-10-19T06:06:25.117Z,11.00
2022-10-19T06:09:43.948Z,11.00
2022-10-19T06:12:10.862Z,11.00
2022-10-19T06:14:43.062Z,11.00
2022-10-19T06:17:14.705Z,11.00
2022-10-19T06:19:43.264Z,11.00
2022-10-19T06:22:10.246Z,10.90
2022-10-19T06:24:45.389Z,10.90
2022-10-19T06:27:51.200Z,10.90
2022-10-19T06:30:21.090Z,10.80
2022-10-19T06:32:48.489Z,10.90
2022-10-19T06:35:18.044Z,10.90
2022-10-19T06:37:46.415Z,11.00
2022-10-19T06:40:15.634Z,11.00
2022-10-19T06:42:54.285Z,10.90
2022-10-19T06:45:25.039Z,10.90
2022-10-19T06:47:53.736Z,11.00
2022-10-19T06:50:20.842Z,10.90
2022-10-19T06:52:50.366Z,11.00
2022-10-19T06:55:18.135Z,11.00
2022-10-19T06:57:46.009Z,10.90
2022-10-19T07:00:16.791Z,10.90
2022-10-19T07:05:42.151Z,10.90
2022-10-19T07:14:14.862Z,11.10
2022-10-19T07:16:46.693Z,11.10
2022-10-19T07:19:20.586Z,11.00
2022-10-19T07:21:57.604Z,11.10
2022-10-19T07:24:33.478Z,11.10
2022-10-19T07:27:05.089Z,11.20
2022-10-19T07:29:49.096Z,11.20
2022-10-19T07:32:16.992Z,11.30
2022-10-19T07:38:07.931Z,11.40
2022-10-19T07:40:36.038Z,11.50
2022-10-19T07:43:05.030Z,11.60
2022-10-19T07:45:34.645Z,11.70
2022-10-19T07:48:02.283Z,11.60
2022-10-19T07:50:30.431Z,11.60
2022-10-19T07:53:00.317Z,11.70
2022-10-19T07:55:29.422Z,11.60
2022-10-19T07:57:58.888Z,11.70
2022-10-19T08:00:30.109Z,11.70
2022-10-19T08:03:19.377Z,11.80
2022-10-19T08:05:49.166Z,11.70
2022-10-19T08:11:21.947Z,12.00
2022-10-19T08:16:40.290Z,12.20
2022-10-19T08:19:12.774Z,12.40
2022-10-19T08:21:45.964Z,12.40
2022-10-19T08:27:02.853Z,12.50
2022-10-19T08:29:31.728Z,12.60
2022-10-19T08:31:59.846Z,12.70
2022-10-19T08:34:26.994Z,12.80
2022-10-19T08:36:55.983Z,12.80
2022-10-19T08:42:20.957Z,12.90
2022-10-19T08:45:27.612Z,12.90
2022-10-19T08:48:33.863Z,13.10
2022-10-19T08:51:01.752Z,13.20
2022-10-19T08:54:00.731Z,13.30
2022-10-19T08:56:50.584Z,13.40
2022-10-19T08:59:33.805Z,13.40
2022-10-19T09:02:10.677Z,13.50
2022-10-19T09:04:47.858Z,13.40
2022-10-19T09:07:34.921Z,13.40
2022-10-19T09:10:34.727Z,13.60
2022-10-19T09:13:20.516Z,13.70
2022-10-19T09:15:56.875Z,13.80
2022-10-19T09:18:28.757Z,13.90
2022-10-19T09:24:21.100Z,13.90
2022-10-19T09:27:01.728Z,13.90
2022-10-19T09:29:38.457Z,14.00
2022-10-19T09:32:35.489Z,14.10
2022-10-19T09:35:21.617Z,14.20
2022-10-19T09:37:52.023Z,14.30
2022-10-19T09:40:23.443Z,14.40
2022-10-19T09:45:51.618Z,14.70
2022-10-19T09:48:42.609Z,14.90
2022-10-19T09:51:17.466Z,14.80
2022-10-19T09:59:23.404Z,14.90
2022-10-19T10:02:24.760Z,14.90
2022-10-19T10:08:15.156Z,15.00
2022-10-19T10:16:12.454Z,15.20
2022-10-19T10:24:23.464Z,15.50
2022-10-19T10:27:43.104Z,15.50
2022-10-19T10:30:23.382Z,15.60
2022-10-19T10:33:40.054Z,15.90
2022-10-19T10:37:02.509Z,16.20
2022-10-19T10:39:44.526Z,16.90
2022-10-19T10:42:19.547Z,17.50
2022-10-19T10:44:59.178Z,17.90
2022-10-19T10:51:15.413Z,18.40
2022-10-19T10:53:50.283Z,18.60
2022-10-19T10:57:07.914Z,18.90
2022-10-19T11:00:02.069Z,19.30
2022-10-19T11:03:14.158Z,19.70
2022-10-19T11:05:56.159Z,19.80
2022-10-19T11:13:03.244Z,19.90
2022-10-19T11:18:16.892Z,20.20
2022-10-19T11:20:59.948Z,20.30
2022-10-19T11:23:41.276Z,20.30
2022-10-19T11:26:40.664Z,20.30
2022-10-19T11:29:17.138Z,20.00
2022-10-19T11:31:51.243Z,19.80
2022-10-19T11:35:00.710Z,19.80
2022-10-19T11:38:19.643Z,20.00
2022-10-19T11:41:24.648Z,20.10
2022-10-19T11:44:00.878Z,20.10
2022-10-19T11:46:40.299Z,19.90
2022-10-19T11:49:28.762Z,19.80
2022-10-19T11:52:21.900Z,19.70
2022-10-19T11:55:13.480Z,19.60
2022-10-19T11:57:59.739Z,19.50
2022-10-19T12:00:39.305Z,19.40
2022-10-19T12:03:43.090Z,19.50
2022-10-19T12:06:13.350Z,19.40
2022-10-19T12:09:04.908Z,19.40
2022-10-19T12:12:15.475Z,19.50
2022-10-19T12:15:16.097Z,19.50
2022-10-19T12:17:54.162Z,19.40
2022-10-19T12:20:40.244Z,19.80
2022-10-19T12:23:46.817Z,20.00
2022-10-19T12:26:20.427Z,20.20
2022-10-19T12:28:52.514Z,20.50
2022-10-19T12:31:50.612Z,20.80
2022-10-19T14:50:16.422Z,18.50
2022-10-19T14:56:50.818Z,18.10
2022-10-19T15:19:05.903Z,17.90
2022-10-19T15:21:46.679Z,17.70
2022-10-19T15:24:28.462Z,17.70
2022-10-19T15:27:21.784Z,17.60
2022-10-19T15:30:21.640Z,17.50
2022-10-19T15:42:09.513Z,17.20
2022-10-19T15:44:46.414Z,17.20
2022-10-19T15:47:22.148Z,17.20
2022-10-19T15:49:58.491Z,17.20
2022-10-19T15:52:29.986Z,17.20
2022-10-19T15:55:06.927Z,17.20
2022-10-19T15:57:40.141Z,17.20
2022-10-19T16:00:17.698Z,17.10
2022-10-19T16:02:46.889Z,17.10
2022-10-19T16:07:59.590Z,17.10
2022-10-19T16:10:38.515Z,17.00
2022-10-19T16:13:06.904Z,17.00
2022-10-19T16:15:34.385Z,17.00
2022-10-19T16:18:01.497Z,17.00
2022-10-19T16:20:31.689Z,16.90
2022-10-19T16:23:01.217Z,16.80
2022-10-19T16:25:29.452Z,16.80
2022-10-19T16:27:57.580Z,16.70
2022-10-19T16:30:54.410Z,16.50
2022-10-19T16:33:24.694Z,16.50
2022-10-19T16:35:52.001Z,16.50
2022-10-19T16:41:10.472Z,16.30
2022-10-19T16:43:38.191Z,16.40
2022-10-19T16:46:50.021Z,16.30
2022-10-19T16:49:08.816Z,16.30
2022-10-19T16:51:38.467Z,16.20
2022-10-19T16:54:11.967Z,16.10
2022-10-19T16:59:30.432Z,16.00
2022-10-19T17:02:03.189Z,15.90
2022-10-19T17:07:17.905Z,15.90
2022-10-19T17:09:45.414Z,15.90
2022-10-19T17:12:23.265Z,16.00
2022-10-19T17:15:08.000Z,15.90
2022-10-19T17:17:41.199Z,15.80
2022-10-19T17:20:12.222Z,15.70
2022-10-19T17:22:40.453Z,15.70
2022-10-19T17:25:09.125Z,15.60
2022-10-19T17:27:47.033Z,15.50
2022-10-19T17:30:30.165Z,15.60
2022-10-19T17:33:13.610Z,15.60
2022-10-19T17:35:48.001Z,15.50
2022-10-19T17:38:17.606Z,15.50
2022-10-19T17:40:46.178Z,15.40
2022-10-19T17:43:14.752Z,15.40
2022-10-19T17:45:44.895Z,15.40
2022-10-19T17:48:12.179Z,15.30
2022-10-19T17:50:42.688Z,15.30
2022-10-19T17:53:11.738Z,15.30
2022-10-19T17:55:43.971Z,15.40
2022-10-19T17:58:11.849Z,15.20
2022-10-19T18:00:39.803Z,15.20
2022-10-19T18:03:07.880Z,15.20
2022-10-19T18:05:35.180Z,15.20
2022-10-19T18:08:04.174Z,15.20
2022-10-19T18:10:35.494Z,15.10
2022-10-19T18:13:04.355Z,15.10
2022-10-19T18:15:31.637Z,15.10
2022-10-19T18:17:58.917Z,15.10
2022-10-19T18:20:27.832Z,15.00
2022-10-19T18:22:55.853Z,15.00
2022-10-19T18:25:42.145Z,15.20
2022-10-19T18:28:10.075Z,15.00
2022-10-19T18:30:38.397Z,15.00
2022-10-19T18:39:05.199Z,14.90
2022-10-19T18:41:34.253Z,15.00
2022-10-19T18:44:08.764Z,15.00
2022-10-19T18:46:37.757Z,14.90
2022-10-19T18:49:08.784Z,14.90
2022-10-19T18:51:36.034Z,14.90
2022-10-19T18:54:07.911Z,14.90
2022-10-19T18:56:36.724Z,14.80
2022-10-19T18:59:05.824Z,14.80
2022-10-19T19:01:39.623Z,14.80
2022-10-19T19:04:09.745Z,14.90
2022-10-19T19:06:38.847Z,14.80
2022-10-19T19:09:11.666Z,14.90
2022-10-19T19:11:41.282Z,14.80
2022-10-19T19:14:15.094Z,14.80
2022-10-19T19:16:43.298Z,14.80
2022-10-19T19:19:17.668Z,14.80
2022-10-19T19:21:46.861Z,14.80
2022-10-19T19:24:17.929Z,14.70
2022-10-19T19:26:49.405Z,14.70
2022-10-19T19:29:19.061Z,14.70
2022-10-19T19:31:49.347Z,14.60
2022-10-19T19:35:20.648Z,14.50
2022-10-19T19:37:51.990Z,14.50
2022-10-19T19:40:21.079Z,14.50
2022-10-19T19:42:52.240Z,14.50
2022-10-19T19:45:21.946Z,14.50
2022-10-19T19:48:51.080Z,14.50
2022-10-19T19:51:21.766Z,14.50
2022-10-19T19:53:54.080Z,14.50
2022-10-19T19:56:25.323Z,14.50
2022-10-19T19:59:03.737Z,14.40
2022-10-19T20:01:37.289Z,14.40
2022-10-19T20:04:06.023Z,14.40
2022-10-19T20:06:36.600Z,14.30
2022-10-19T20:09:05.458Z,14.30
2022-10-19T20:11:36.216Z,14.40
2022-10-19T20:16:52.677Z,14.30
2022-10-19T20:19:22.934Z,14.20
2022-10-19T20:21:53.284Z,14.20
2022-10-19T20:24:24.541Z,14.30
2022-10-19T20:26:52.736Z,14.30
2022-10-19T20:29:22.222Z,14.30
2022-10-19T20:31:50.377Z,14.30
2022-10-19T20:35:20.569Z,14.20
2022-10-19T20:37:50.651Z,14.20
2022-10-19T20:40:21.004Z,14.30
2022-10-19T20:42:49.008Z,14.30
2022-10-19T20:45:19.357Z,14.40
2022-10-19T20:47:48.349Z,14.30
2022-10-19T20:52:57.100Z,14.40
2022-10-19T20:55:24.087Z,14.20
2022-10-19T20:57:52.031Z,14.20
2022-10-19T21:00:19.176Z,14.20
2022-10-19T21:02:46.744Z,14.20
2022-10-19T21:20:45.669Z,14.10
2022-10-19T21:23:13.151Z,14.10
2022-10-19T21:25:54.460Z,14.10
2022-10-19T21:28:23.266Z,14.10
2022-10-19T21:30:50.601Z,14.10
2022-10-19T21:33:19.146Z,14.10
2022-10-19T21:35:47.075Z,14.20
2022-10-19T21:38:24.950Z,14.20
2022-10-19T21:41:09.339Z,14.20
2022-10-19T21:43:40.330Z,14.20
2022-10-19T21:46:11.566Z,14.20
2022-10-19T21:48:42.015Z,14.10
2022-10-19T21:51:37.012Z,14.20
2022-10-19T21:54:12.935Z,14.20
2022-10-19T21:56:40.000Z,14.20
2022-10-19T21:59:08.042Z,14.10
2022-10-19T22:02:00.708Z,14.10
2022-10-19T22:05:00.592Z,14.00
2022-10-19T22:07:29.910Z,14.00
2022-10-19T22:09:56.778Z,14.00
2022-10-19T22:12:23.964Z,14.10
2022-10-19T22:14:52.144Z,14.10
2022-10-19T22:17:22.644Z,14.10
2022-10-19T22:19:50.716Z,14.10
2022-10-19T22:22:19.989Z,14.00
2022-10-19T22:24:47.324Z,14.00
2022-10-19T22:27:22.979Z,14.00
2022-10-19T22:29:52.723Z,14.00
2022-10-19T22:32:22.623Z,14.10
2022-10-19T22:34:49.572Z,14.10
2022-10-19T22:37:16.489Z,14.10
2022-10-19T22:39:43.477Z,14.10
2022-10-19T22:42:32.302Z,14.00
2022-10-19T22:44:59.229Z,14.00
2022-10-19T22:47:27.134Z,14.00
2022-10-19T22:49:56.767Z,14.00
2022-10-19T22:52:25.674Z,14.10
2022-10-19T22:54:52.679Z,14.00
2022-10-19T22:57:21.871Z,14.00
2022-10-19T22:59:49.821Z,14.10
2022-10-19T23:02:17.901Z,14.10
2022-10-19T23:04:44.924Z,14.10
2022-10-19T23:09:42.566Z,14.00
2022-10-19T23:12:10.530Z,13.90
2022-10-19T23:14:39.373Z,13.80
2022-10-19T23:17:06.249Z,13.80
2022-10-19T23:19:38.655Z,13.80
2022-10-19T23:22:07.938Z,13.90
2022-10-19T23:24:38.968Z,13.90
2022-10-19T23:27:05.998Z,13.90
2022-10-19T23:29:33.126Z,13.90
2022-10-19T23:32:00.477Z,14.00
2022-10-19T23:34:28.931Z,14.10
2022-10-19T23:36:55.830Z,14.00
2022-10-19T23:39:23.182Z,14.00
2022-10-19T23:41:51.114Z,14.00
2022-10-19T23:44:17.998Z,14.00
2022-10-19T23:46:45.948Z,14.00
2022-10-19T23:49:13.139Z,13.80
2022-10-19T23:51:45.657Z,13.90
2022-10-19T23:54:12.627Z,14.00
2022-10-19T23:56:39.497Z,14.00
2022-10-19T23:59:32.283Z,13.90
